Terminal Aerodrome Forecast
Issued by NWS Albany, NY

Current Version | Previous Version | Text Only | Print | Product List | Glossary On
Versions: 1 2 3 4 5 6 7 8 9 10 11 12 13 14 15 16 17 18 19 20 21 22 23 24
990 FTUS41 KALY 281424 AAA TAFALB TAF AMD KALB 281424Z 2814/2912 19005KT P6SM SCT015 BKN020 OVC150 TEMPO 2814/2818 BKN015 OVC025 FM281800 17004KT 4SM -SHRA BR OVC010 FM290000 30005KT P6SM OVC008=

USA.gov is the U.S. government's official web portal to all federal, state and local government web resources and services.